Accueil
METAR-TAF:

METAR-TAF

Aéroports :

Aéroport international de Bagdad

Bagdad, Irak

latitude: 33-15-45N, longitude: 44-14-04E, altitude: 35 m

Observation

Le bulletin a été fait il y a 33 minutes, à 14:00 UTC
Vent 4 kt de nord/nord-ouest
Température 29°C
Humidité 20%
Pression 1015 hPa
Visibilité 10 km ou plus
pas de nuages en-dessous de 1500 mètres et pas de cumulonimbus.

METAR: ORBI 271400Z 34004KT CAVOK 29/04 Q1015 NOSIG

Heure: 17:33 (14:33 UTC)

Prévision

Le bulletin a été fait il y a 4 heures et 33 minutes, à 10:00 UTC
Prévision valable du 27 à 12 UTC au 28 à 12 UTC
Vent 8 kt de nord-ouest
Visibilité 10 km ou plus
pas de nuages en-dessous de 1500 mètres et pas de cumulonimbus.

TAF: ORBI 271000Z 2712/2812 32008KT CAVOK

Observations et prévisions météorologiques de plus de 4000 aéroports (messages METAR et TAF).

Les stations disponibles sont représentées par des disques jaunes et rouges sur la carte.

Passer la souris dessus pour voir le nom de la station.

Cliquer dessus pour voir les observations et prévisions météorologiques.

Pour changer de carte: cliquez sur les boutons verts avec une croix noire pour zoomer, sur le bouton vert avec un tiret pour effectuer un zoom arrière, ou sur les flèches vertes pour les cartes adjacentes.


METAR-TAF: